createdAt,value
2023-02-11T00:00:33.740Z,21.20
2023-02-11T00:03:00.309Z,21.13
2023-02-11T00:05:26.728Z,20.38
2023-02-11T00:07:53.047Z,21.08
2023-02-11T00:10:19.565Z,20.83
2023-02-11T00:12:46.002Z,21.77
2023-02-11T00:15:12.402Z,21.45
2023-02-11T00:17:38.847Z,21.23
2023-02-11T00:20:08.144Z,22.98
2023-02-11T00:22:34.946Z,22.50
2023-02-11T00:25:01.461Z,23.08
2023-02-11T00:27:27.946Z,22.85
2023-02-11T00:29:54.490Z,22.45
2023-02-11T00:32:21.626Z,22.02
2023-02-11T00:34:48.095Z,22.27
2023-02-11T00:37:14.514Z,23.70
2023-02-11T00:39:40.918Z,23.45
2023-02-11T00:42:07.331Z,24.05
2023-02-11T00:44:33.743Z,22.98
2023-02-11T00:47:00.136Z,22.63
2023-02-11T00:49:26.596Z,21.90
2023-02-11T00:51:53.065Z,23.80
2023-02-11T00:54:19.597Z,21.30
2023-02-11T00:56:46.100Z,21.98
2023-02-11T00:59:12.555Z,22.20
2023-02-11T01:01:39.900Z,22.75
2023-02-11T01:04:06.289Z,20.95
2023-02-11T01:06:32.664Z,21.67
2023-02-11T01:08:59.087Z,21.83
2023-02-11T01:11:25.535Z,20.30
2023-02-11T01:13:51.937Z,20.40
2023-02-11T01:16:19.878Z,20.30
2023-02-11T01:18:46.358Z,20.80
2023-02-11T01:21:12.849Z,20.40
2023-02-11T01:23:39.200Z,21.25
2023-02-11T01:26:05.835Z,20.67
2023-02-11T01:28:32.941Z,21.02
2023-02-11T01:31:00.061Z,21.75
2023-02-11T01:33:26.469Z,22.83
2023-02-11T01:35:53.403Z,20.55
2023-02-11T01:38:23.985Z,20.67
2023-02-11T01:40:54.492Z,19.90
2023-02-11T01:43:21.322Z,21.35
2023-02-11T01:45:47.772Z,20.75
2023-02-11T01:48:20.462Z,19.92
2023-02-11T01:50:48.270Z,19.33
2023-02-11T01:53:33.773Z,20.52
2023-02-11T01:56:18.868Z,19.15
2023-02-11T01:58:46.885Z,19.70
2023-02-11T02:01:14.988Z,18.05
2023-02-11T02:03:43.696Z,19.40
2023-02-11T02:06:15.462Z,20.52
2023-02-11T02:08:54.254Z,19.83
2023-02-11T02:11:20.674Z,19.45
2023-02-11T02:13:47.134Z,19.75
2023-02-11T02:16:15.137Z,19.92
2023-02-11T02:18:56.646Z,20.83
2023-02-11T02:21:41.632Z,20.73
2023-02-11T02:24:14.292Z,20.60
2023-02-11T02:26:52.825Z,21.08
2023-02-11T02:29:28.628Z,20.73
2023-02-11T02:32:13.792Z,19.70
2023-02-11T02:34:47.809Z,21.48
2023-02-11T02:37:21.694Z,21.30
2023-02-11T02:39:49.004Z,20.25
2023-02-11T02:42:16.170Z,20.67
2023-02-11T02:44:48.183Z,20.30
2023-02-11T02:47:14.521Z,19.23
2023-02-11T02:49:42.047Z,20.33
2023-02-11T02:52:11.204Z,20.17
2023-02-11T02:54:37.558Z,20.13
2023-02-11T02:57:04.038Z,20.42
2023-02-11T02:59:36.220Z,19.77
2023-02-11T03:02:07.670Z,20.85
2023-02-11T03:04:43.442Z,20.40
2023-02-11T03:07:19.692Z,19.95
2023-02-11T03:09:51.289Z,19.75
2023-02-11T03:12:17.861Z,18.83
2023-02-11T03:14:44.894Z,19.58
2023-02-11T03:17:11.546Z,19.95
2023-02-11T03:19:39.996Z,19.90
2023-02-11T03:22:08.659Z,19.80
2023-02-11T03:24:36.424Z,19.15
2023-02-11T03:27:23.061Z,18.20
2023-02-11T03:29:54.281Z,19.23
2023-02-11T03:32:25.452Z,19.35
2023-02-11T03:35:00.234Z,18.90
2023-02-11T03:37:40.180Z,17.40
2023-02-11T03:40:15.416Z,17.98
2023-02-11T03:42:53.384Z,18.58
2023-02-11T03:45:21.686Z,19.15
2023-02-11T03:47:51.899Z,19.17
2023-02-11T03:50:18.790Z,18.65
2023-02-11T03:52:46.737Z,18.98
2023-02-11T03:55:15.068Z,20.33
2023-02-11T03:57:41.774Z,20.40
2023-02-11T04:00:08.533Z,19.45
2023-02-11T04:02:36.000Z,19.98
2023-02-11T04:05:02.951Z,19.83
2023-02-11T04:07:29.298Z,19.95
2023-02-11T04:09:55.672Z,19.30
2023-02-11T04:12:22.154Z,20.67
2023-02-11T04:14:48.502Z,20.75
2023-02-11T04:17:14.834Z,19.77
2023-02-11T04:19:41.336Z,21.13
2023-02-11T04:22:07.864Z,20.17
2023-02-11T04:24:34.318Z,20.55
2023-02-11T04:27:00.817Z,20.65
2023-02-11T04:29:28.156Z,19.48
2023-02-11T04:31:54.687Z,20.25
2023-02-11T04:34:21.351Z,20.98
2023-02-11T04:36:47.711Z,20.33
2023-02-11T04:39:14.073Z,19.05
2023-02-11T04:41:40.445Z,20.63
2023-02-11T04:44:07.075Z,20.23
2023-02-11T04:46:33.499Z,21.23
2023-02-11T04:48:59.896Z,20.98
2023-02-11T04:51:26.290Z,21.20
2023-02-11T04:53:52.898Z,19.75
2023-02-11T04:56:19.400Z,19.98
2023-02-11T04:58:45.769Z,20.00
2023-02-11T05:01:13.192Z,19.55
2023-02-11T05:03:39.742Z,21.00
2023-02-11T05:06:06.467Z,20.35
2023-02-11T05:08:32.987Z,19.83
2023-02-11T05:10:59.351Z,19.65
2023-02-11T05:13:25.778Z,19.63
2023-02-11T05:15:52.611Z,19.70
2023-02-11T05:18:19.131Z,20.45
2023-02-11T05:20:45.649Z,19.63
2023-02-11T05:23:12.326Z,20.98
2023-02-11T05:25:38.725Z,19.95
2023-02-11T05:28:05.351Z,19.45
2023-02-11T05:30:31.728Z,18.55
2023-02-11T05:32:58.192Z,20.75
2023-02-11T05:35:24.704Z,19.08
2023-02-11T05:37:51.291Z,19.15
2023-02-11T05:40:17.930Z,19.25
2023-02-11T05:42:44.334Z,18.00
2023-02-11T05:45:10.833Z,18.27
2023-02-11T05:47:37.219Z,20.08
2023-02-11T05:50:03.806Z,19.20
2023-02-11T05:52:30.298Z,19.50
2023-02-11T05:54:59.006Z,19.15
2023-02-11T05:57:25.425Z,20.17
2023-02-11T05:59:51.809Z,19.48
2023-02-11T06:02:18.263Z,18.80
2023-02-11T06:04:44.771Z,18.50
2023-02-11T06:07:11.406Z,18.25
2023-02-11T06:09:37.898Z,19.00
2023-02-11T06:12:04.527Z,19.88
2023-02-11T06:14:32.788Z,19.65
2023-02-11T06:16:59.220Z,20.40
2023-02-11T06:19:25.599Z,20.08
2023-02-11T06:21:53.248Z,19.88
2023-02-11T06:24:38.386Z,20.48
2023-02-11T06:27:06.282Z,19.58
2023-02-11T06:29:32.749Z,19.90
2023-02-11T06:32:01.756Z,20.15
2023-02-11T06:34:28.224Z,19.83
2023-02-11T06:36:54.574Z,20.25
2023-02-11T06:39:21.149Z,19.85
2023-02-11T06:41:47.528Z,19.85
2023-02-11T06:44:13.932Z,20.60
2023-02-11T06:46:40.394Z,19.23
2023-02-11T06:49:06.734Z,20.90
2023-02-11T06:51:33.169Z,20.50
2023-02-11T06:53:59.516Z,19.58
2023-02-11T06:56:27.521Z,21.17
2023-02-11T06:58:55.501Z,19.55
2023-02-11T07:01:22.478Z,20.83
2023-02-11T07:03:49.465Z,20.33
2023-02-11T07:06:17.943Z,20.05
2023-02-11T07:08:45.948Z,20.98
2023-02-11T07:11:13.807Z,20.50
2023-02-11T07:13:40.204Z,20.63
2023-02-11T07:16:07.548Z,20.98
2023-02-11T07:18:34.347Z,20.55
2023-02-11T07:21:04.206Z,20.75
2023-02-11T07:23:30.523Z,20.85
2023-02-11T07:25:57.166Z,20.38
2023-02-11T07:28:23.670Z,20.67
2023-02-11T07:30:50.213Z,19.98
2023-02-11T07:33:16.607Z,21.10
2023-02-11T07:35:42.999Z,21.52
2023-02-11T07:38:09.460Z,21.75
2023-02-11T07:40:36.371Z,21.02
2023-02-11T07:43:03.060Z,22.05
2023-02-11T07:45:29.466Z,22.58
2023-02-11T07:47:55.815Z,22.20
2023-02-11T07:50:22.231Z,22.50
2023-02-11T07:52:48.660Z,22.67
2023-02-11T07:55:15.125Z,22.08
2023-02-11T07:57:41.588Z,20.98
2023-02-11T08:00:08.355Z,21.05
2023-02-11T08:02:34.823Z,21.33
2023-02-11T08:05:01.283Z,23.13
2023-02-11T08:07:29.628Z,21.08
2023-02-11T08:09:56.003Z,22.30
2023-02-11T08:12:22.400Z,22.25
2023-02-11T08:14:48.767Z,22.77
2023-02-11T08:17:15.232Z,23.58
2023-02-11T08:19:41.645Z,23.45
2023-02-11T08:22:07.998Z,23.27
2023-02-11T08:24:34.437Z,24.70
2023-02-11T08:27:00.806Z,25.20
2023-02-11T08:29:27.227Z,24.15
2023-02-11T08:31:53.650Z,23.38
2023-02-11T08:34:20.090Z,25.27
2023-02-11T08:36:47.554Z,24.17
2023-02-11T08:39:19.605Z,24.38
2023-02-11T08:41:50.526Z,22.65
2023-02-11T08:44:17.870Z,23.38
2023-02-11T08:46:44.321Z,22.38
2023-02-11T08:49:10.815Z,22.45
2023-02-11T08:51:37.355Z,23.77
2023-02-11T08:54:03.805Z,23.85
2023-02-11T08:56:32.396Z,24.95
2023-02-11T08:58:58.887Z,23.23
2023-02-11T09:01:27.045Z,23.55
2023-02-11T09:03:53.780Z,24.30
2023-02-11T09:06:20.542Z,25.60
2023-02-11T09:08:49.392Z,24.10
2023-02-11T09:11:16.229Z,24.75
2023-02-11T09:13:43.248Z,24.98
2023-02-11T09:16:15.709Z,25.05
2023-02-11T09:18:42.097Z,23.90
2023-02-11T09:21:09.314Z,23.35
2023-02-11T09:23:36.139Z,24.95
2023-02-11T09:26:09.113Z,25.10
2023-02-11T09:28:35.872Z,25.25
2023-02-11T09:31:06.733Z,24.63
2023-02-11T09:33:33.597Z,24.23
2023-02-11T09:36:04.365Z,24.17
2023-02-11T09:38:31.221Z,23.13
2023-02-11T09:40:57.628Z,24.50
2023-02-11T09:43:36.756Z,23.92
2023-02-11T09:46:04.633Z,23.55
2023-02-11T09:48:36.547Z,24.02
2023-02-11T09:51:03.318Z,23.08
2023-02-11T09:53:32.361Z,24.33
2023-02-11T09:55:59.829Z,24.02
2023-02-11T09:58:27.538Z,22.67
2023-02-11T10:01:08.429Z,23.10
2023-02-11T10:03:50.053Z,24.10
2023-02-11T10:06:36.697Z,22.85
2023-02-11T10:09:21.972Z,23.95
2023-02-11T10:12:07.169Z,24.60
2023-02-11T10:14:48.950Z,23.58
2023-02-11T10:17:34.294Z,23.48
2023-02-11T10:20:14.627Z,23.83
2023-02-11T10:22:46.965Z,25.13
2023-02-11T10:25:26.801Z,25.70
2023-02-11T10:27:55.954Z,24.90
2023-02-11T10:30:33.442Z,25.77
2023-02-11T10:32:59.817Z,24.83
2023-02-11T10:35:27.239Z,24.70
2023-02-11T10:37:54.838Z,25.20
2023-02-11T10:40:22.816Z,25.48
2023-02-11T10:42:52.977Z,25.05
2023-02-11T10:45:32.715Z,24.60
2023-02-11T10:48:00.213Z,23.00
2023-02-11T10:50:28.016Z,24.80
2023-02-11T10:53:10.945Z,23.90
2023-02-11T10:55:37.359Z,24.05
2023-02-11T10:58:04.486Z,23.90
2023-02-11T11:00:39.047Z,23.48
2023-02-11T11:03:07.873Z,22.40
2023-02-11T11:05:57.422Z,22.58
2023-02-11T11:08:37.630Z,20.90
2023-02-11T11:11:06.184Z,22.35
2023-02-11T11:13:37.097Z,22.40
2023-02-11T11:16:15.715Z,22.40
2023-02-11T11:18:43.830Z,21.85
2023-02-11T11:21:13.244Z,22.23
2023-02-11T11:23:39.962Z,23.17
2023-02-11T11:26:14.100Z,22.65
2023-02-11T11:28:40.540Z,22.77
2023-02-11T11:31:13.425Z,22.35
2023-02-11T11:33:41.281Z,22.55
2023-02-11T11:36:08.544Z,22.83
2023-02-11T11:38:36.511Z,21.98
2023-02-11T11:41:32.438Z,21.77
2023-02-11T11:43:58.822Z,21.10
2023-02-11T11:46:27.277Z,21.42
2023-02-11T11:48:56.433Z,23.33
2023-02-11T11:51:23.943Z,22.58
2023-02-11T11:54:00.155Z,22.45
2023-02-11T11:56:28.679Z,22.25
2023-02-11T11:58:55.056Z,20.23
2023-02-11T12:01:24.547Z,22.25
2023-02-11T12:04:09.830Z,22.25
2023-02-11T12:06:39.285Z,23.10
2023-02-11T12:09:24.148Z,22.42
2023-02-11T12:12:02.751Z,21.98
2023-02-11T12:14:29.202Z,21.63
2023-02-11T12:16:55.515Z,22.98
2023-02-11T12:19:40.413Z,24.30
2023-02-11T12:22:06.713Z,22.00
2023-02-11T12:24:33.079Z,22.73
2023-02-11T12:27:05.111Z,22.02
2023-02-11T12:29:34.357Z,23.20
2023-02-11T12:32:07.938Z,23.13
2023-02-11T12:34:34.387Z,22.67
2023-02-11T12:37:14.219Z,21.70
2023-02-11T12:39:45.531Z,22.73
2023-02-11T12:42:33.828Z,22.65
2023-02-11T12:45:09.369Z,22.63
2023-02-11T12:47:45.238Z,22.02
2023-02-11T12:50:24.151Z,22.92
2023-02-11T12:52:50.477Z,23.17
2023-02-11T12:55:16.868Z,22.13
2023-02-11T12:57:44.202Z,23.30
2023-02-11T13:00:23.333Z,23.33
2023-02-11T13:03:19.101Z,24.30
2023-02-11T13:05:51.232Z,23.38
2023-02-11T13:08:17.557Z,22.40
2023-02-11T13:10:47.265Z,21.55
2023-02-11T13:13:18.364Z,21.30
2023-02-11T13:16:07.908Z,22.77
2023-02-11T13:18:37.532Z,22.25
2023-02-11T13:21:24.150Z,22.90
2023-02-11T13:24:02.916Z,21.95
2023-02-11T13:26:32.360Z,22.10
2023-02-11T13:28:58.684Z,22.30
2023-02-11T13:31:27.573Z,21.70
2023-02-11T13:33:54.324Z,21.77
2023-02-11T13:36:27.871Z,22.30
2023-02-11T13:38:57.095Z,21.83
2023-02-11T13:41:26.669Z,21.80
2023-02-11T13:43:59.300Z,21.80
2023-02-11T13:46:26.179Z,22.13
2023-02-11T13:48:53.918Z,21.52
2023-02-11T13:51:40.661Z,20.88
2023-02-11T13:54:07.640Z,21.92
2023-02-11T13:56:38.221Z,22.83
2023-02-11T13:59:23.600Z,21.02
2023-02-11T14:02:11.898Z,21.45
2023-02-11T14:05:16.870Z,19.63
2023-02-11T14:08:21.969Z,19.65
2023-02-11T14:10:49.380Z,20.13
2023-02-11T14:13:22.237Z,20.60
2023-02-11T14:15:48.666Z,20.02
2023-02-11T14:18:34.059Z,21.08
2023-02-11T14:21:13.164Z,20.80
2023-02-11T14:23:40.010Z,19.77
2023-02-11T14:26:19.913Z,19.40
2023-02-11T14:28:52.383Z,19.27
2023-02-11T14:31:22.770Z,20.88
2023-02-11T14:33:55.390Z,20.00
2023-02-11T14:36:43.716Z,19.70
2023-02-11T14:39:10.067Z,20.15
2023-02-11T14:41:39.640Z,19.92
2023-02-11T14:44:12.577Z,19.55
2023-02-11T14:46:43.538Z,18.95
2023-02-11T14:49:16.307Z,20.30
2023-02-11T15:40:56.688Z,18.95
2023-02-11T15:43:23.302Z,19.15
2023-02-11T15:46:01.061Z,19.73
2023-02-11T15:48:38.472Z,19.98
2023-02-11T15:51:12.550Z,18.73
2023-02-11T15:53:42.331Z,18.55
2023-02-11T15:56:26.872Z,18.02
2023-02-11T15:58:55.668Z,18.60
2023-02-11T16:01:31.619Z,18.30
2023-02-11T16:03:59.659Z,18.42
2023-02-11T16:06:27.395Z,19.38
2023-02-11T16:08:58.299Z,19.05
2023-02-11T16:11:26.209Z,19.08
2023-02-11T16:13:52.691Z,19.05
2023-02-11T16:16:27.275Z,18.38
2023-02-11T16:19:04.959Z,17.97
2023-02-11T16:21:38.965Z,18.27
2023-02-11T16:24:07.336Z,18.23
2023-02-11T16:26:36.307Z,18.00
2023-02-11T16:29:13.563Z,16.92
2023-02-11T16:31:42.225Z,18.48
2023-02-11T16:34:15.867Z,18.38
2023-02-11T16:36:42.499Z,18.65
2023-02-11T16:39:09.059Z,18.25
2023-02-11T16:41:35.459Z,17.80
2023-02-11T16:44:01.928Z,17.55
2023-02-11T16:46:28.478Z,18.70
2023-02-11T16:48:55.974Z,18.95
2023-02-11T16:51:23.463Z,17.88
2023-02-11T16:53:49.863Z,18.38
2023-02-11T16:56:17.444Z,16.73
2023-02-11T16:58:44.601Z,17.98
2023-02-11T17:01:13.562Z,17.38
2023-02-11T17:03:40.620Z,17.30
2023-02-11T17:06:09.343Z,18.38
2023-02-11T17:08:35.810Z,19.92
2023-02-11T17:11:02.604Z,19.23
2023-02-11T17:13:29.175Z,20.55
2023-02-11T17:15:55.809Z,20.10
2023-02-11T17:18:22.253Z,21.48
2023-02-11T17:20:49.237Z,20.73
2023-02-11T17:23:15.652Z,21.65
2023-02-11T17:25:42.100Z,22.00
2023-02-11T17:28:09.040Z,21.83
2023-02-11T17:30:35.491Z,22.98
2023-02-11T17:33:01.881Z,21.58
2023-02-11T17:35:28.221Z,24.30
2023-02-11T17:37:54.635Z,23.85
2023-02-11T17:40:21.168Z,25.10
2023-02-11T17:42:47.525Z,26.55
2023-02-11T17:45:14.188Z,26.95
2023-02-11T17:47:40.647Z,25.85
2023-02-11T17:50:07.680Z,27.50
2023-02-11T17:52:34.110Z,26.30
2023-02-11T17:55:00.521Z,26.77
2023-02-11T17:57:26.881Z,27.98
2023-02-11T17:59:53.326Z,28.08
2023-02-11T18:02:19.706Z,27.83
2023-02-11T18:04:46.417Z,27.95
2023-02-11T18:07:12.946Z,29.63
2023-02-11T18:09:40.194Z,28.13
2023-02-11T18:12:07.649Z,28.40
2023-02-11T18:14:34.057Z,29.92
2023-02-11T18:17:00.436Z,29.08
2023-02-11T18:19:30.460Z,28.98
2023-02-11T18:21:58.619Z,28.95
2023-02-11T18:24:27.029Z,30.45
2023-02-11T18:26:53.392Z,28.73
2023-02-11T18:29:19.897Z,28.83
2023-02-11T18:31:46.380Z,28.67
2023-02-11T18:34:13.006Z,30.15
2023-02-11T18:36:39.449Z,29.55
2023-02-11T18:39:05.981Z,29.15
2023-02-11T18:41:32.444Z,28.88
2023-02-11T18:44:03.523Z,29.00
2023-02-11T18:46:30.240Z,27.80
2023-02-11T18:48:56.690Z,28.95
2023-02-11T18:51:23.125Z,28.27
2023-02-11T18:53:49.561Z,27.58
2023-02-11T18:56:20.565Z,28.55
2023-02-11T18:58:47.720Z,28.13
2023-02-11T19:01:15.748Z,26.83
2023-02-11T19:03:42.664Z,26.10
2023-02-11T19:06:14.069Z,25.98
2023-02-11T19:08:40.453Z,26.25
2023-02-11T19:11:06.861Z,26.33
2023-02-11T19:13:33.182Z,26.30
2023-02-11T19:15:59.531Z,24.52
2023-02-11T19:18:26.026Z,25.05
2023-02-11T19:20:52.355Z,24.02
2023-02-11T19:23:18.787Z,24.10
2023-02-11T19:25:46.896Z,23.52
2023-02-11T19:28:13.341Z,22.95
2023-02-11T19:30:39.951Z,23.35
2023-02-11T19:33:08.936Z,23.20
2023-02-11T19:35:36.648Z,21.95
2023-02-11T19:38:04.374Z,22.58
2023-02-11T19:40:30.882Z,22.17
2023-02-11T19:42:57.227Z,21.50
2023-02-11T19:45:23.617Z,21.92
2023-02-11T19:47:54.196Z,20.75
2023-02-11T19:50:20.555Z,21.23
2023-02-11T19:52:46.948Z,20.25
2023-02-11T19:55:13.352Z,20.00
2023-02-11T19:57:39.716Z,20.73
2023-02-11T20:00:06.655Z,19.52
2023-02-11T20:02:33.126Z,18.80
2023-02-11T20:04:59.522Z,18.83
2023-02-11T20:07:25.950Z,18.85
2023-02-11T20:09:53.757Z,19.23
2023-02-11T20:12:20.163Z,20.27
2023-02-11T20:14:46.531Z,19.38
2023-02-11T20:17:12.942Z,18.13
2023-02-11T20:19:39.281Z,18.48
2023-02-11T20:22:05.673Z,20.00
2023-02-11T20:24:32.054Z,18.40
2023-02-11T20:26:58.361Z,16.90
2023-02-11T20:29:25.110Z,16.45
2023-02-11T20:31:51.618Z,18.10
2023-02-11T20:34:18.299Z,17.48
2023-02-11T20:36:51.470Z,16.33
2023-02-11T20:39:18.587Z,18.83
2023-02-11T20:41:46.037Z,18.02
2023-02-11T20:44:13.000Z,19.38
2023-02-11T20:46:40.400Z,19.20
2023-02-11T20:49:08.580Z,19.15
2023-02-11T20:51:36.592Z,18.95
2023-02-11T20:54:03.151Z,19.00
2023-02-11T20:56:30.792Z,19.35
2023-02-11T20:58:58.041Z,20.85
2023-02-11T21:01:24.427Z,20.02
2023-02-11T21:03:50.891Z,18.85
2023-02-11T21:06:17.570Z,18.65
2023-02-11T21:08:43.916Z,19.17
2023-02-11T21:11:10.968Z,18.05
2023-02-11T21:13:37.909Z,17.83
2023-02-11T21:16:04.820Z,19.83
2023-02-11T21:18:31.295Z,17.45
2023-02-11T21:20:57.626Z,19.05
2023-02-11T21:23:24.821Z,18.88
2023-02-11T21:25:52.951Z,18.65
2023-02-11T21:28:19.575Z,18.75
2023-02-11T21:30:45.991Z,20.08
2023-02-11T21:33:12.376Z,18.50
2023-02-11T21:35:39.025Z,19.55
2023-02-11T21:38:08.589Z,19.60
2023-02-11T21:40:35.032Z,20.23
2023-02-11T21:43:01.426Z,20.40
2023-02-11T21:45:28.249Z,20.65
2023-02-11T21:47:54.722Z,19.45
2023-02-11T21:50:21.017Z,20.75
2023-02-11T21:52:47.422Z,21.33
2023-02-11T21:55:13.941Z,21.08
2023-02-11T21:57:41.528Z,21.20
2023-02-11T22:00:08.413Z,21.70
2023-02-11T22:02:34.738Z,22.70
2023-02-11T22:05:01.139Z,23.35
2023-02-11T22:07:28.055Z,22.95
2023-02-11T22:09:55.727Z,23.35
2023-02-11T22:12:24.792Z,22.25
2023-02-11T22:14:51.124Z,24.20
2023-02-11T22:17:17.566Z,24.45
2023-02-11T22:19:43.894Z,24.40
2023-02-11T22:22:10.347Z,23.17
2023-02-11T22:24:36.735Z,23.73
2023-02-11T22:27:03.235Z,23.88
2023-02-11T22:29:29.585Z,24.17
2023-02-11T22:31:55.959Z,23.80
2023-02-11T22:34:22.395Z,23.80
2023-02-11T22:36:48.773Z,25.23
2023-02-11T22:39:16.182Z,24.05
2023-02-11T22:41:43.590Z,24.25
2023-02-11T22:44:10.530Z,24.40
2023-02-11T22:46:39.701Z,23.92
2023-02-11T22:49:07.194Z,25.17
2023-02-11T22:51:33.892Z,23.55
2023-02-11T22:54:01.215Z,26.02
2023-02-11T22:56:28.696Z,24.52
2023-02-11T22:58:59.249Z,25.90
2023-02-11T23:01:26.278Z,24.10
2023-02-11T23:03:52.675Z,24.30
2023-02-11T23:06:19.073Z,24.92
2023-02-11T23:08:45.512Z,24.10
2023-02-11T23:11:13.665Z,24.38
2023-02-11T23:13:40.760Z,25.23
2023-02-11T23:16:08.766Z,24.88
2023-02-11T23:18:36.312Z,23.83
2023-02-11T23:21:05.269Z,23.90
2023-02-11T23:23:31.654Z,24.05
2023-02-11T23:25:58.127Z,22.75
2023-02-11T23:28:24.702Z,25.02
2023-02-11T23:30:51.080Z,24.60
2023-02-11T23:33:17.478Z,22.33
2023-02-11T23:35:43.794Z,25.58
2023-02-11T23:38:10.132Z,24.98
2023-02-11T23:40:36.490Z,23.88
2023-02-11T23:43:02.857Z,24.23
2023-02-11T23:45:29.231Z,24.17
2023-02-11T23:47:56.292Z,22.95
2023-02-11T23:50:22.642Z,23.92
2023-02-11T23:52:49.064Z,22.38
2023-02-11T23:55:15.367Z,23.15
2023-02-11T23:57:41.735Z,23.08
